SWA1020 KBWI-KALB
Flight info
| Callsign | SWA1020 |
|---|---|
| Flight time | 0h 49m |
| Altitude | 29000 |
| Route | DUKPN1 BROSS Q419 RBV Q22 LLUND TRUDE V487 CANAN |
| Aircraft | B737/M-SADE2E3GIJ4RWZ/LB1D1 |
Departure
| Time | 2026-05-09 03:51 |
|---|---|
| Airport | Baltimore/Washington International Thurgood Marshall Airport (KBWI) |
Arrival
| Time | 2026-05-09 04:40 |
|---|---|
| Airport | Albany International Airport (KALB) |
| Time | Latitude | Longitude | Altitude | Speed | Heading |
|---|---|---|---|---|---|
| 2026-05-09 03:34 | 39.17788 | -76.67116 | 156 ft | 0 kts | 98° |
| 2026-05-09 03:40 | 39.17788 | -76.67118 | 156 ft | 2 kts | 98° |
| 2026-05-09 03:41 | 39.17784 | -76.67146 | 155 ft | 4 kts | 63° |
| 2026-05-09 03:41 | 39.17776 | -76.67172 | 156 ft | 4 kts | 80° |
| 2026-05-09 03:41 | 39.17777 | -76.67205 | 155 ft | 4 kts | 118° |
| 2026-05-09 03:41 | 39.17786 | -76.67221 | 155 ft | 2 kts | 143° |
| 2026-05-09 03:42 | 39.17787 | -76.67223 | 155 ft | 1 kts | 144° |
| 2026-05-09 03:44 | 39.17783 | -76.67219 | 155 ft | 2 kts | 144° |
| 2026-05-09 03:45 | 39.17760 | -76.67197 | 156 ft | 6 kts | 144° |
| 2026-05-09 03:45 | 39.17714 | -76.67155 | 156 ft | 10 kts | 144° |
| 2026-05-09 03:45 | 39.17656 | -76.67101 | 159 ft | 10 kts | 144° |
| 2026-05-09 03:45 | 39.17598 | -76.67047 | 159 ft | 10 kts | 144° |
| 2026-05-09 03:46 | 39.17551 | -76.66978 | 159 ft | 11 kts | 115° |
| 2026-05-09 03:46 | 39.17530 | -76.66872 | 158 ft | 14 kts | 112° |
| 2026-05-09 03:46 | 39.17468 | -76.66788 | 158 ft | 13 kts | 108° |
| 2026-05-09 03:46 | 39.17455 | -76.66672 | 158 ft | 13 kts | 96° |
| 2026-05-09 03:47 | 39.17407 | -76.66593 | 155 ft | 13 kts | 172° |
| 2026-05-09 03:47 | 39.17320 | -76.66597 | 154 ft | 12 kts | 185° |
| 2026-05-09 03:47 | 39.17236 | -76.66608 | 154 ft | 12 kts | 182° |
| 2026-05-09 03:47 | 39.17155 | -76.66616 | 158 ft | 12 kts | 186° |
| 2026-05-09 03:48 | 39.17077 | -76.66605 | 156 ft | 11 kts | 150° |
| 2026-05-09 03:48 | 39.17009 | -76.66542 | 155 ft | 13 kts | 143° |
| 2026-05-09 03:48 | 39.16935 | -76.66474 | 156 ft | 15 kts | 143° |
| 2026-05-09 03:48 | 39.16828 | -76.66376 | 157 ft | 21 kts | 147° |
| 2026-05-09 03:49 | 39.16711 | -76.66269 | 157 ft | 20 kts | 144° |
| 2026-05-09 03:49 | 39.16599 | -76.66165 | 155 ft | 19 kts | 144° |
| 2026-05-09 03:49 | 39.16525 | -76.66114 | 153 ft | 10 kts | 184° |
| 2026-05-09 03:49 | 39.16471 | -76.66174 | 154 ft | 13 kts | 233° |
| 2026-05-09 03:50 | 39.16476 | -76.66286 | 155 ft | 18 kts | 313° |
| 2026-05-09 03:50 | 39.16764 | -76.66559 | 156 ft | 91 kts | 324° |
| 2026-05-09 03:50 | 39.17478 | -76.67227 | 167 ft | 159 kts | 323° |
| 2026-05-09 03:50 | 39.18431 | -76.68151 | 696 ft | 174 kts | 322° |
| 2026-05-09 03:51 | 39.19284 | -76.69203 | 1593 ft | 170 kts | 290° |
| 2026-05-09 03:51 | 39.19499 | -76.70661 | 2226 ft | 174 kts | 254° |
| 2026-05-09 03:51 | 39.18839 | -76.72083 | 2468 ft | 204 kts | 216° |
| 2026-05-09 03:51 | 39.17435 | -76.72505 | 3333 ft | 220 kts | 178° |
| 2026-05-09 03:52 | 39.15918 | -76.71855 | 4246 ft | 239 kts | 165° |
| 2026-05-09 03:52 | 39.14366 | -76.71008 | 5205 ft | 245 kts | 164° |
| 2026-05-09 03:52 | 39.12797 | -76.70191 | 6247 ft | 248 kts | 163° |
| 2026-05-09 03:52 | 39.11168 | -76.69379 | 6791 ft | 252 kts | 163° |
| 2026-05-09 03:53 | 39.09561 | -76.68434 | 7005 ft | 261 kts | 148° |
| 2026-05-09 03:53 | 39.08424 | -76.66586 | 7029 ft | 272 kts | 113° |
| 2026-05-09 03:53 | 39.08180 | -76.64103 | 7250 ft | 294 kts | 88° |
| 2026-05-09 03:53 | 39.08297 | -76.61433 | 8149 ft | 302 kts | 86° |
| 2026-05-09 03:54 | 39.08436 | -76.58725 | 9247 ft | 305 kts | 86° |
| 2026-05-09 03:54 | 39.08568 | -76.55971 | 10222 ft | 312 kts | 86° |
| 2026-05-09 03:54 | 39.08693 | -76.53090 | 10700 ft | 337 kts | 86° |
| 2026-05-09 03:54 | 39.08818 | -76.49940 | 10932 ft | 367 kts | 86° |
| 2026-05-09 03:55 | 39.08956 | -76.46561 | 11441 ft | 385 kts | 84° |
| 2026-05-09 03:55 | 39.09523 | -76.43165 | 12209 ft | 392 kts | 69° |
| 2026-05-09 03:55 | 39.10454 | -76.39842 | 13103 ft | 398 kts | 67° |
| 2026-05-09 03:55 | 39.11432 | -76.36465 | 13921 ft | 407 kts | 68° |
| 2026-05-09 03:56 | 39.12410 | -76.33016 | 14700 ft | 413 kts | 68° |
| 2026-05-09 03:56 | 39.13375 | -76.29503 | 15536 ft | 418 kts | 69° |
| 2026-05-09 03:56 | 39.14333 | -76.25950 | 16357 ft | 422 kts | 69° |
| 2026-05-09 03:56 | 39.15270 | -76.22339 | 17139 ft | 429 kts | 73° |
| 2026-05-09 03:57 | 39.15840 | -76.18541 | 17913 ft | 435 kts | 82° |
| 2026-05-09 03:57 | 39.16189 | -76.14647 | 18628 ft | 441 kts | 83° |
| 2026-05-09 03:57 | 39.16557 | -76.10690 | 19299 ft | 446 kts | 82° |
| 2026-05-09 03:57 | 39.16973 | -76.06770 | 19948 ft | 451 kts | 81° |
| 2026-05-09 03:58 | 39.17432 | -76.02753 | 20600 ft | 456 kts | 81° |
| 2026-05-09 03:58 | 39.17902 | -75.98692 | 21251 ft | 461 kts | 81° |
| 2026-05-09 03:58 | 39.18374 | -75.94570 | 21843 ft | 468 kts | 81° |
| 2026-05-09 03:58 | 39.19071 | -75.90464 | 22379 ft | 472 kts | 66° |
| 2026-05-09 03:59 | 39.20612 | -75.86746 | 23039 ft | 468 kts | 49° |
| 2026-05-09 03:59 | 39.22821 | -75.83738 | 23684 ft | 461 kts | 34° |
| 2026-05-09 03:59 | 39.25277 | -75.81069 | 24208 ft | 463 kts | 33° |
| 2026-05-09 03:59 | 39.27785 | -75.78429 | 24686 ft | 468 kts | 32° |
| 2026-05-09 04:00 | 39.30317 | -75.75754 | 25184 ft | 472 kts | 33° |
| 2026-05-09 04:00 | 39.32847 | -75.73036 | 25689 ft | 476 kts | 33° |
| 2026-05-09 04:00 | 39.35391 | -75.70262 | 26165 ft | 480 kts | 33° |
| 2026-05-09 04:00 | 39.37944 | -75.67450 | 26665 ft | 484 kts | 33° |
| 2026-05-09 04:01 | 39.40514 | -75.64612 | 27104 ft | 489 kts | 33° |
| 2026-05-09 04:01 | 39.43076 | -75.61785 | 27565 ft | 492 kts | 33° |
| 2026-05-09 04:01 | 39.45687 | -75.58909 | 28022 ft | 495 kts | 32° |
| 2026-05-09 04:01 | 39.48124 | -75.56232 | 28441 ft | 497 kts | 32° |
| 2026-05-09 04:02 | 39.50767 | -75.53330 | 28889 ft | 500 kts | 32° |
| 2026-05-09 04:02 | 39.53440 | -75.50392 | 29036 ft | 506 kts | 32° |
| 2026-05-09 04:02 | 39.58799 | -75.44477 | 29020 ft | 504 kts | 32° |
| 2026-05-09 04:03 | 39.64099 | -75.38617 | 29041 ft | 500 kts | 32° |
| 2026-05-09 04:03 | 39.69218 | -75.32963 | 29024 ft | 501 kts | 32° |
| 2026-05-09 04:04 | 39.74519 | -75.27091 | 29014 ft | 502 kts | 32° |
| 2026-05-09 04:04 | 39.79787 | -75.21125 | 29016 ft | 506 kts | 37° |
| 2026-05-09 04:05 | 39.84500 | -75.14226 | 29015 ft | 512 kts | 43° |
| 2026-05-09 04:05 | 39.89074 | -75.07150 | 29018 ft | 510 kts | 43° |
| 2026-05-09 04:06 | 39.93692 | -75.00199 | 29049 ft | 508 kts | 41° |
| 2026-05-09 04:06 | 39.98231 | -74.93120 | 29017 ft | 512 kts | 48° |
| 2026-05-09 04:07 | 40.02191 | -74.85373 | 29023 ft | 514 kts | 51° |
| 2026-05-09 04:07 | 40.06048 | -74.77516 | 29014 ft | 513 kts | 51° |
| 2026-05-09 04:08 | 40.09934 | -74.69784 | 29006 ft | 513 kts | 50° |
| 2026-05-09 04:08 | 40.13880 | -74.62014 | 29004 ft | 513 kts | 50° |
| 2026-05-09 04:09 | 40.17816 | -74.54235 | 29011 ft | 513 kts | 50° |
| 2026-05-09 04:09 | 40.22258 | -74.47107 | 29001 ft | 497 kts | 33° |
| 2026-05-09 04:10 | 40.27577 | -74.41459 | 29014 ft | 493 kts | 30° |
| 2026-05-09 04:10 | 40.32952 | -74.35869 | 29020 ft | 493 kts | 30° |
| 2026-05-09 04:11 | 40.38278 | -74.30211 | 29018 ft | 493 kts | 30° |
| 2026-05-09 04:11 | 40.43577 | -74.24519 | 29008 ft | 492 kts | 30° |
| 2026-05-09 04:12 | 40.48543 | -74.19174 | 29066 ft | 492 kts | 30° |
| 2026-05-09 04:12 | 40.53835 | -74.13475 | 29022 ft | 491 kts | 30° |
| 2026-05-09 04:13 | 40.59109 | -74.07788 | 29005 ft | 489 kts | 30° |
| 2026-05-09 04:13 | 40.64369 | -74.02111 | 29038 ft | 488 kts | 30° |
| 2026-05-09 04:14 | 40.69628 | -73.96424 | 29032 ft | 490 kts | 29° |
| 2026-05-09 04:14 | 40.74886 | -73.90723 | 29013 ft | 489 kts | 29° |
| 2026-05-09 04:15 | 40.80147 | -73.85004 | 29010 ft | 489 kts | 29° |
| 2026-05-09 04:15 | 40.85400 | -73.79285 | 29051 ft | 490 kts | 28° |
| 2026-05-09 04:16 | 40.90538 | -73.73287 | 29028 ft | 496 kts | 32° |
| 2026-05-09 04:16 | 40.95551 | -73.66993 | 29012 ft | 497 kts | 33° |
| 2026-05-09 04:17 | 41.00524 | -73.60745 | 29024 ft | 496 kts | 32° |
| 2026-05-09 04:17 | 41.05586 | -73.54447 | 29024 ft | 496 kts | 32° |
| 2026-05-09 04:18 | 41.10589 | -73.48235 | 29023 ft | 496 kts | 32° |
| 2026-05-09 04:18 | 41.15622 | -73.41968 | 29029 ft | 496 kts | 32° |
| 2026-05-09 04:19 | 41.20648 | -73.35691 | 29052 ft | 497 kts | 32° |
| 2026-05-09 04:19 | 41.25683 | -73.29390 | 29026 ft | 497 kts | 32° |
| 2026-05-09 04:20 | 41.30937 | -73.23690 | 29025 ft | 465 kts | 12° |
| 2026-05-09 04:20 | 41.33905 | -73.22391 | 29047 ft | 438 kts | 357° |
| 2026-05-09 04:20 | 41.36875 | -73.21985 | 29036 ft | 422 kts | 347° |
| 2026-05-09 04:21 | 41.39756 | -73.22320 | 29051 ft | 410 kts | 337° |
| 2026-05-09 04:21 | 41.42456 | -73.23361 | 29056 ft | 402 kts | 331° |
| 2026-05-09 04:22 | 41.50450 | -73.26889 | 29030 ft | 405 kts | 332° |
| 2026-05-09 04:22 | 41.55823 | -73.29147 | 29027 ft | 405 kts | 332° |
| 2026-05-09 04:23 | 41.61091 | -73.31341 | 28185 ft | 391 kts | 332° |
| 2026-05-09 04:23 | 41.63696 | -73.32444 | 26964 ft | 396 kts | 332° |
| 2026-05-09 04:23 | 41.66348 | -73.33576 | 25652 ft | 404 kts | 333° |
| 2026-05-09 04:23 | 41.69044 | -73.34725 | 24517 ft | 409 kts | 334° |
| 2026-05-09 04:24 | 41.71754 | -73.35871 | 23644 ft | 408 kts | 334° |
| 2026-05-09 04:24 | 41.74460 | -73.37012 | 22749 ft | 404 kts | 334° |
| 2026-05-09 04:24 | 41.77120 | -73.38132 | 21968 ft | 398 kts | 334° |
| 2026-05-09 04:24 | 41.79739 | -73.39239 | 21201 ft | 393 kts | 334° |
| 2026-05-09 04:25 | 41.82329 | -73.40343 | 20404 ft | 389 kts | 335° |
| 2026-05-09 04:25 | 41.84905 | -73.41440 | 19617 ft | 386 kts | 335° |
| 2026-05-09 04:25 | 41.87456 | -73.42526 | 18880 ft | 382 kts | 335° |
| 2026-05-09 04:25 | 41.89983 | -73.43602 | 18104 ft | 379 kts | 335° |
| 2026-05-09 04:26 | 41.92427 | -73.44645 | 17197 ft | 369 kts | 335° |
| 2026-05-09 04:26 | 41.94851 | -73.45686 | 16083 ft | 364 kts | 335° |
| 2026-05-09 04:26 | 41.97257 | -73.46725 | 15000 ft | 360 kts | 335° |
| 2026-05-09 04:26 | 41.99623 | -73.47753 | 13998 ft | 355 kts | 335° |
| 2026-05-09 04:27 | 42.01951 | -73.48760 | 12956 ft | 349 kts | 335° |
| 2026-05-09 04:27 | 42.04234 | -73.49741 | 12250 ft | 338 kts | 335° |
| 2026-05-09 04:27 | 42.06434 | -73.50689 | 11529 ft | 330 kts | 335° |
| 2026-05-09 04:27 | 42.08597 | -73.51622 | 10891 ft | 321 kts | 335° |
| 2026-05-09 04:28 | 42.10678 | -73.52538 | 10679 ft | 306 kts | 333° |
| 2026-05-09 04:28 | 42.12610 | -73.53612 | 10501 ft | 295 kts | 329° |
| 2026-05-09 04:28 | 42.14474 | -73.54735 | 10384 ft | 295 kts | 329° |
| 2026-05-09 04:28 | 42.16316 | -73.55861 | 10268 ft | 284 kts | 329° |
| 2026-05-09 04:29 | 42.18053 | -73.56913 | 10128 ft | 264 kts | 328° |
| 2026-05-09 04:29 | 42.19672 | -73.57889 | 10058 ft | 245 kts | 328° |
| 2026-05-09 04:29 | 42.21183 | -73.58792 | 10041 ft | 233 kts | 328° |
| 2026-05-09 04:29 | 42.22654 | -73.59677 | 9895 ft | 233 kts | 328° |
| 2026-05-09 04:30 | 42.24154 | -73.60593 | 9605 ft | 246 kts | 328° |
| 2026-05-09 04:30 | 42.25758 | -73.61568 | 9264 ft | 249 kts | 328° |
| 2026-05-09 04:30 | 42.27300 | -73.62497 | 8896 ft | 243 kts | 329° |
| 2026-05-09 04:30 | 42.28822 | -73.63413 | 8537 ft | 237 kts | 329° |
| 2026-05-09 04:31 | 42.30306 | -73.64308 | 8192 ft | 231 kts | 329° |
| 2026-05-09 04:31 | 42.31765 | -73.65190 | 7876 ft | 229 kts | 329° |
| 2026-05-09 04:31 | 42.33232 | -73.66082 | 7567 ft | 234 kts | 329° |
| 2026-05-09 04:31 | 42.34706 | -73.66977 | 7224 ft | 231 kts | 329° |
| 2026-05-09 04:32 | 42.36168 | -73.67864 | 6890 ft | 229 kts | 330° |
| 2026-05-09 04:32 | 42.37600 | -73.68731 | 6553 ft | 223 kts | 330° |
| 2026-05-09 04:32 | 42.38998 | -73.69579 | 6184 ft | 218 kts | 330° |
| 2026-05-09 04:32 | 42.40373 | -73.70414 | 5844 ft | 216 kts | 330° |
| 2026-05-09 04:33 | 42.41748 | -73.71252 | 5525 ft | 218 kts | 331° |
| 2026-05-09 04:33 | 42.43140 | -73.72100 | 5203 ft | 220 kts | 331° |
| 2026-05-09 04:33 | 42.44542 | -73.72953 | 4892 ft | 221 kts | 332° |
| 2026-05-09 04:33 | 42.45950 | -73.73811 | 4568 ft | 222 kts | 332° |
| 2026-05-09 04:34 | 42.47366 | -73.74673 | 4266 ft | 223 kts | 332° |
| 2026-05-09 04:34 | 42.48769 | -73.75527 | 4062 ft | 217 kts | 333° |
| 2026-05-09 04:34 | 42.50105 | -73.76339 | 3931 ft | 204 kts | 333° |
| 2026-05-09 04:34 | 42.51349 | -73.77095 | 3838 ft | 190 kts | 333° |
| 2026-05-09 04:35 | 42.52535 | -73.77819 | 3778 ft | 184 kts | 333° |
| 2026-05-09 04:35 | 42.53308 | -73.78291 | 3727 ft | 184 kts | 333° |
| 2026-05-09 04:35 | 42.54481 | -73.79007 | 3661 ft | 186 kts | 333° |
| 2026-05-09 04:35 | 42.55695 | -73.79624 | 3564 ft | 189 kts | 349° |
| 2026-05-09 04:36 | 42.57034 | -73.79679 | 3385 ft | 196 kts | 356° |
| 2026-05-09 04:36 | 42.58394 | -73.79745 | 3144 ft | 194 kts | 355° |
| 2026-05-09 04:36 | 42.59716 | -73.79816 | 2905 ft | 186 kts | 356° |
| 2026-05-09 04:36 | 42.60980 | -73.79874 | 2687 ft | 175 kts | 356° |
| 2026-05-09 04:37 | 42.62134 | -73.79923 | 2525 ft | 155 kts | 356° |
| 2026-05-09 04:37 | 42.63154 | -73.79967 | 2394 ft | 145 kts | 356° |
| 2026-05-09 04:37 | 42.64156 | -73.80014 | 2196 ft | 140 kts | 357° |
| 2026-05-09 04:37 | 42.65112 | -73.80053 | 2011 ft | 135 kts | 357° |
| 2026-05-09 04:38 | 42.66034 | -73.80095 | 1841 ft | 132 kts | 358° |
| 2026-05-09 04:38 | 42.66959 | -73.80134 | 1686 ft | 135 kts | 358° |
| 2026-05-09 04:38 | 42.67903 | -73.80175 | 1499 ft | 136 kts | 357° |
| 2026-05-09 04:38 | 42.68850 | -73.80216 | 1303 ft | 137 kts | 356° |
| 2026-05-09 04:39 | 42.69796 | -73.80256 | 1100 ft | 138 kts | 356° |
| 2026-05-09 04:39 | 42.70757 | -73.80301 | 904 ft | 140 kts | 358° |
| 2026-05-09 04:39 | 42.71744 | -73.80343 | 718 ft | 141 kts | 357° |
| 2026-05-09 04:39 | 42.72716 | -73.80385 | 525 ft | 141 kts | 358° |
| 2026-05-09 04:40 | 42.73678 | -73.80429 | 321 ft | 135 kts | 359° |
| 2026-05-09 04:40 | 42.74416 | -73.80458 | 293 ft | 55 kts | 359° |
| 2026-05-09 04:40 | 42.74581 | -73.80470 | 294 ft | 12 kts | 344° |
| 2026-05-09 04:40 | 42.74605 | -73.80538 | 293 ft | 8 kts | 270° |
| 2026-05-09 04:41 | 42.74597 | -73.80616 | 290 ft | 9 kts | 263° |
| 2026-05-09 04:41 | 42.74590 | -73.80703 | 288 ft | 10 kts | 263° |
| 2026-05-09 04:41 | 42.74617 | -73.80724 | 288 ft | 5 kts | 1° |
| 2026-05-09 04:41 | 42.74645 | -73.80725 | 286 ft | 1 kts | 359° |
| 2026-05-09 04:42 | 42.74655 | -73.80730 | 286 ft | 3 kts | 324° |
| 2026-05-09 04:42 | 42.74662 | -73.80744 | 285 ft | 1 kts | 310° |
| 2026-05-09 04:42 | 42.74667 | -73.80750 | 285 ft | 1 kts | 315° |
| 2026-05-09 04:42 | 42.74670 | -73.80753 | 285 ft | 0 kts | 321° |